Commerce Township, MI (48382)

3:36 PM EDT on August 20, 2017 (GMT -0400)
Lower Straits Lake | | Change Station

Elev 938 ft 42.59 °N, 83.47 °W | Updated 9 seconds ago

Partly Cloudy
Partly Cloudy
84.6 °F
Feels Like 84 °F
N
0.0
Wind Variable Wind from SSE
Gusts 0.0 mph

Today
High -- | Low -- °F
--% Chance of Precip.
Yesterday
High -- | Low -- °F
Precip. -- in
Pressure 30.06 in
Visibility 10.0 miles
Clouds Few 6000 ft
Overcast 25000 ft
Heat Index 84 °F
Dew Point 56 °F
Humidity 38%
Rainfall 0.00 in
Snow Depth Not available.
6:46 AM 8:27 PM
Waning Crescent, 1% visible
METAR KPTK 201853Z 24004KT 10SM FEW060 OVC250 28/14 A3007 RMK AO2 SLP178 T02780144
Pressure 30.06 in
Visibility 10.0 miles
Clouds Few 6000 ft
Overcast 25000 ft
Heat Index 84 °F
Dew Point 56 °F
Humidity 38%
Rainfall 0.00 in
Snow Depth Not available.
6:46 AM 8:27 PM
Waning Crescent, 1% visible
METAR KPTK 201853Z 24004KT 10SM FEW060 OVC250 28/14 A3007 RMK AO2 SLP178 T02780144

Get Severe Weather Alerts

Thanks for signing up!

Be on the lookout for a verification email in your inbox.

You'll start receiving the daily forecast at 6 AM.

×

10-Day Weather Forecast

Almanac

Astronomy

Aug. 20, 2017 Rise Set
Actual Time
Civil Twilight
Nautical Twilight
Astronomical Twilight
Moon
Length of Visible Light
Length of Day
Tomorrow will be .
, % of the Moon is Illuminated

Today's Extremes

State Highs State Lows

Community

WunderPhotos

Category 6

Welcome to Category 6. This is the collective home for Weather Underground's featured writeups by Dr. Jeff Masters (right), Bob Henson (left), Chris Burt, and other regular contributors.

Nearby

Air Quality

  Air Quality AQ Index Pollutant
Not available.

Snow Depth

Station Depth Elevation

Earthquake Activity

City Distance Mag. Time & Date
Minimum magnitude displayed is 2.5.

Coastal Water Temperatures

Place Temperature

Stations

Nearby Weather Stations

Station Location Temp. Windchill Dew Point Humidity Wind Precip. Elev Updated Type
                   

Watches & Warnings

There are currently no watches in effect.